createdAt,value
2018-12-13T00:00:28.682Z,97.00
2018-12-13T00:02:59.427Z,97.20
2018-12-13T00:05:30.180Z,97.70
2018-12-13T00:07:59.010Z,97.30
2018-12-13T00:10:27.735Z,97.30
2018-12-13T00:12:58.449Z,97.30
2018-12-13T00:15:31.929Z,96.90
2018-12-13T00:18:00.717Z,96.60
2018-12-13T00:20:29.533Z,96.70
2018-12-13T00:22:58.371Z,96.80
2018-12-13T00:25:27.132Z,97.00
2018-12-13T00:27:55.958Z,97.20
2018-12-13T00:30:24.788Z,97.10
2018-12-13T00:32:53.554Z,97.10
2018-12-13T00:35:22.335Z,97.30
2018-12-13T00:37:51.159Z,97.30
2018-12-13T00:40:19.986Z,97.50
2018-12-13T00:42:48.745Z,97.30
2018-12-13T00:45:17.545Z,97.40
2018-12-13T00:47:46.314Z,97.70
2018-12-13T00:50:15.135Z,97.50
2018-12-13T00:52:43.970Z,97.50
2018-12-13T00:55:12.859Z,97.60
2018-12-13T00:57:42.614Z,97.50
2018-12-13T01:00:11.504Z,97.60
2018-12-13T01:02:40.334Z,97.70
2018-12-13T01:05:09.161Z,97.90
2018-12-13T01:07:38.001Z,97.80
2018-12-13T01:10:06.798Z,97.70
2018-12-13T01:12:35.612Z,97.70
2018-12-13T01:15:04.771Z,97.90
2018-12-13T01:17:33.600Z,97.90
2018-12-13T01:20:02.359Z,97.80
2018-12-13T01:22:32.265Z,97.70
2018-12-13T01:25:01.017Z,97.40
2018-12-13T01:27:29.801Z,97.40
2018-12-13T01:29:58.485Z,97.30
2018-12-13T01:32:27.245Z,97.30
2018-12-13T01:34:56.041Z,97.20
2018-12-13T01:37:24.794Z,97.10
2018-12-13T01:39:53.495Z,97.00
2018-12-13T01:42:22.331Z,96.90
2018-12-13T01:44:51.101Z,96.90
2018-12-13T01:47:19.866Z,96.80
2018-12-13T01:49:48.587Z,96.70
2018-12-13T01:52:17.405Z,96.70
2018-12-13T01:54:46.228Z,96.70
2018-12-13T01:57:15.046Z,96.50
2018-12-13T01:59:43.812Z,96.50
2018-12-13T02:02:12.770Z,96.30
2018-12-13T02:04:41.475Z,96.30
2018-12-13T02:07:10.405Z,96.30
2018-12-13T02:09:39.108Z,96.30
2018-12-13T02:12:07.937Z,96.20
2018-12-13T02:14:36.671Z,96.10
2018-12-13T02:17:05.393Z,96.10
2018-12-13T02:19:34.235Z,96.20
2018-12-13T02:22:03.077Z,96.10
2018-12-13T02:24:31.967Z,96.10
2018-12-13T02:27:00.741Z,96.10
2018-12-13T02:29:29.565Z,96.10
2018-12-13T02:31:58.388Z,96.20
2018-12-13T02:34:27.207Z,96.20
2018-12-13T02:36:55.965Z,96.20
2018-12-13T02:39:24.798Z,96.20
2018-12-13T02:41:53.574Z,96.20
2018-12-13T02:44:22.299Z,96.20
2018-12-13T02:46:51.120Z,96.20
2018-12-13T02:49:19.887Z,96.50
2018-12-13T02:51:48.631Z,96.30
2018-12-13T02:54:17.439Z,96.20
2018-12-13T02:56:46.154Z,96.20
2018-12-13T02:59:15.033Z,96.20
2018-12-13T03:01:43.860Z,96.20
2018-12-13T03:04:12.673Z,96.20
2018-12-13T03:06:41.517Z,96.10
2018-12-13T03:09:10.305Z,96.10
2018-12-13T03:11:39.114Z,96.10
2018-12-13T03:14:07.938Z,95.90
2018-12-13T03:16:36.769Z,96.00
2018-12-13T03:19:05.583Z,96.00
2018-12-13T03:21:34.414Z,96.10
2018-12-13T03:24:03.206Z,96.10
2018-12-13T03:26:32.030Z,96.10
2018-12-13T03:29:01.876Z,96.20
2018-12-13T03:31:30.694Z,96.20
2018-12-13T03:33:59.436Z,96.40
2018-12-13T03:36:28.206Z,96.50
2018-12-13T03:38:56.973Z,96.50
2018-12-13T03:41:25.745Z,96.70
2018-12-13T03:43:54.615Z,96.90
2018-12-13T03:46:23.375Z,96.70
2018-12-13T03:48:52.188Z,96.80
2018-12-13T03:51:21.034Z,97.00
2018-12-13T03:53:49.757Z,97.20
2018-12-13T03:56:18.587Z,97.40
2018-12-13T03:58:47.341Z,97.00
2018-12-13T04:44:14.391Z,97.70
2018-12-13T04:46:43.117Z,97.90
2018-12-13T04:49:11.925Z,97.90
2018-12-13T04:51:40.720Z,98.10
2018-12-13T04:54:09.538Z,98.00
2018-12-13T04:56:38.376Z,98.00
2018-12-13T04:59:07.139Z,98.00
2018-12-13T05:01:35.903Z,98.00
2018-12-13T05:04:04.723Z,98.00
2018-12-13T05:06:33.532Z,97.90
2018-12-13T05:09:02.348Z,97.90
2018-12-13T05:11:33.045Z,97.90
2018-12-13T05:14:01.793Z,97.90
2018-12-13T05:16:30.597Z,97.90
2018-12-13T05:18:59.399Z,97.90
2018-12-13T05:21:28.139Z,97.90
2018-12-13T05:23:56.898Z,97.90
2018-12-13T05:26:25.713Z,97.90
2018-12-13T05:28:54.458Z,97.90
2018-12-13T05:31:23.344Z,98.00
2018-12-13T05:33:52.207Z,98.10
2018-12-13T05:36:21.930Z,98.00
2018-12-13T05:38:50.671Z,98.00
2018-12-13T05:41:19.489Z,98.00
2018-12-13T05:43:52.468Z,98.00
2018-12-13T05:46:21.450Z,98.00
2018-12-13T05:48:50.191Z,98.40
2018-12-13T05:51:18.916Z,98.80
2018-12-13T05:53:47.662Z,99.10
2018-12-13T05:56:16.422Z,99.40
2018-12-13T05:58:45.225Z,99.60
2018-12-13T06:01:13.987Z,99.70
2018-12-13T06:03:42.773Z,99.80
2018-12-13T06:06:11.489Z,99.90
2018-12-13T06:08:40.230Z,99.90
2018-12-13T06:11:09.062Z,99.90
2018-12-13T06:13:37.783Z,99.90
2018-12-13T06:16:06.582Z,99.90
2018-12-13T06:18:35.455Z,99.90
2018-12-13T06:21:04.238Z,99.80
2018-12-13T06:23:32.981Z,99.50
2018-12-13T06:26:01.739Z,99.80
2018-12-13T06:28:30.497Z,99.80
2018-12-13T06:30:59.311Z,99.90
2018-12-13T06:33:28.315Z,99.90
2018-12-13T06:35:57.220Z,99.90
2018-12-13T06:38:25.936Z,99.90
2018-12-13T06:40:54.839Z,99.90
2018-12-13T06:43:23.654Z,99.90
2018-12-13T06:45:52.542Z,99.90
2018-12-13T06:48:21.330Z,99.90
2018-12-13T06:50:50.086Z,99.90
2018-12-13T06:53:18.885Z,99.90
2018-12-13T06:55:47.630Z,99.90
2018-12-13T06:58:16.345Z,99.90
2018-12-13T07:00:45.027Z,99.90
2018-12-13T07:03:13.832Z,99.90
2018-12-13T07:05:42.601Z,99.90
2018-12-13T07:08:11.421Z,99.70
2018-12-13T07:10:40.190Z,99.50
2018-12-13T07:13:09.014Z,99.60
2018-12-13T07:15:37.738Z,99.70
2018-12-13T07:18:06.554Z,99.60
2018-12-13T07:20:35.354Z,99.70
2018-12-13T07:23:04.173Z,99.50
2018-12-13T07:25:32.993Z,99.40
2018-12-13T07:28:01.846Z,99.40
2018-12-13T07:30:30.629Z,99.20
2018-12-13T07:32:59.419Z,99.00
2018-12-13T07:35:28.212Z,98.80
2018-12-13T07:37:57.090Z,98.80
2018-12-13T07:40:25.910Z,98.80
2018-12-13T07:42:54.739Z,98.80
2018-12-13T07:45:23.501Z,98.60
2018-12-13T07:47:58.756Z,98.60
2018-12-13T07:50:27.493Z,98.40
2018-12-13T07:52:56.295Z,98.30
2018-12-13T07:55:25.059Z,98.80
2018-12-13T07:57:53.811Z,99.50
2018-12-13T08:00:22.627Z,99.10
2018-12-13T08:02:51.448Z,98.40
2018-12-13T08:05:20.417Z,98.70
2018-12-13T08:07:49.135Z,99.00
2018-12-13T08:10:17.926Z,99.10
2018-12-13T08:12:46.721Z,98.80
2018-12-13T08:15:15.604Z,99.00
2018-12-13T08:17:46.652Z,98.90
2018-12-13T08:20:17.580Z,99.50
2018-12-13T08:22:53.129Z,99.60
2018-12-13T08:25:21.918Z,99.60
2018-12-13T08:27:50.766Z,99.70
2018-12-13T08:30:19.582Z,99.70
2018-12-13T08:32:48.302Z,99.80
2018-12-13T08:35:17.097Z,99.80
2018-12-13T08:37:45.861Z,99.90
2018-12-13T08:40:21.173Z,99.80
2018-12-13T08:42:49.993Z,99.70
2018-12-13T08:45:18.760Z,99.70
2018-12-13T08:47:47.569Z,99.90
2018-12-13T08:50:16.405Z,99.90
2018-12-13T08:52:45.131Z,99.90
2018-12-13T08:55:13.943Z,99.60
2018-12-13T08:57:42.762Z,99.80
2018-12-13T09:00:11.604Z,99.60
2018-12-13T09:02:40.360Z,99.40
2018-12-13T09:05:09.201Z,99.20
2018-12-13T09:07:37.974Z,99.20
2018-12-13T09:10:07.311Z,99.00
2018-12-13T09:12:36.182Z,99.00
2018-12-13T09:15:05.924Z,99.00
2018-12-13T09:17:34.748Z,98.70
2018-12-13T09:20:03.976Z,98.50
2018-12-13T09:22:32.774Z,97.90
2018-12-13T09:25:01.493Z,97.90
2018-12-13T09:27:31.074Z,97.40
2018-12-13T09:29:59.889Z,97.40
2018-12-13T09:32:28.637Z,96.70
2018-12-13T09:34:57.407Z,94.50
2018-12-13T09:37:26.183Z,93.40
2018-12-13T09:39:55.058Z,94.20
2018-12-13T09:42:23.887Z,94.80
2018-12-13T09:44:52.609Z,95.40
2018-12-13T09:47:21.416Z,95.60
2018-12-13T09:49:50.129Z,95.50
2018-12-13T09:52:19.149Z,95.40
2018-12-13T09:54:48.012Z,95.50
2018-12-13T09:57:17.936Z,95.40
2018-12-13T09:59:46.722Z,95.30
2018-12-13T10:02:15.563Z,95.30
2018-12-13T10:04:44.390Z,95.30
2018-12-13T10:07:13.194Z,95.60
2018-12-13T10:09:41.969Z,95.60
2018-12-13T10:12:10.766Z,95.60
2018-12-13T10:14:39.591Z,95.70
2018-12-13T10:17:15.071Z,95.70
2018-12-13T10:19:43.785Z,95.80
2018-12-13T10:22:12.614Z,95.40
2018-12-13T10:24:41.397Z,95.70
2018-12-13T10:27:10.197Z,95.90
2018-12-13T10:29:39.960Z,96.00
2018-12-13T10:32:08.823Z,96.10
2018-12-13T10:34:37.562Z,96.10
2018-12-13T10:37:06.382Z,96.20
2018-12-13T10:39:35.158Z,96.10
2018-12-13T10:42:04.188Z,96.20
2018-12-13T10:44:36.149Z,96.30
2018-12-13T10:47:05.468Z,96.10
2018-12-13T10:49:34.416Z,96.10
2018-12-13T10:52:03.244Z,95.90
2018-12-13T10:54:32.205Z,96.00
2018-12-13T10:57:01.116Z,96.30
2018-12-13T10:59:31.348Z,95.90
2018-12-13T11:02:02.412Z,96.00
2018-12-13T11:04:31.245Z,95.70
2018-12-13T11:07:00.128Z,95.70
2018-12-13T11:09:28.849Z,96.20
2018-12-13T11:11:57.681Z,95.50
2018-12-13T11:14:26.473Z,95.70
2018-12-13T11:16:55.285Z,95.50
2018-12-13T11:19:24.074Z,95.60
2018-12-13T11:21:52.841Z,95.40
2018-12-13T11:24:21.652Z,95.20
2018-12-13T11:26:50.448Z,94.80
2018-12-13T11:29:33.375Z,94.70
2018-12-13T11:32:02.045Z,94.70
2018-12-13T11:34:30.845Z,94.20
2018-12-13T11:36:59.601Z,94.50
2018-12-13T11:39:28.395Z,94.00
2018-12-13T11:41:57.126Z,93.80
2018-12-13T11:44:26.712Z,93.80
2018-12-13T11:46:55.457Z,93.70
2018-12-13T11:49:24.234Z,92.30
2018-12-13T11:51:52.975Z,92.60
2018-12-13T11:54:37.377Z,92.40
2018-12-13T11:57:06.259Z,92.60
2018-12-13T11:59:34.975Z,92.40
2018-12-13T12:02:03.851Z,92.40
2018-12-13T12:04:33.713Z,92.30
2018-12-13T12:07:02.635Z,92.80
2018-12-13T12:09:31.326Z,92.70
2018-12-13T12:12:00.117Z,92.40
2018-12-13T12:14:28.980Z,92.30
2018-12-13T12:16:57.765Z,92.40
2018-12-13T12:19:26.748Z,92.10
2018-12-13T12:21:55.480Z,92.00
2018-12-13T12:24:24.371Z,92.20
2018-12-13T12:26:53.133Z,92.50
2018-12-13T12:29:22.012Z,92.40
2018-12-13T12:31:50.817Z,92.20
2018-12-13T12:34:19.674Z,92.80
2018-12-13T12:36:48.480Z,92.70
2018-12-13T12:39:18.767Z,92.80
2018-12-13T12:41:47.707Z,93.10
2018-12-13T12:44:16.489Z,93.30
2018-12-13T12:46:45.181Z,94.70
2018-12-13T12:49:14.308Z,95.40
2018-12-13T12:51:43.033Z,95.90
2018-12-13T12:54:11.750Z,95.10
2018-12-13T12:56:40.549Z,95.30
2018-12-13T12:59:09.375Z,95.80
2018-12-13T13:01:38.180Z,95.90
2018-12-13T13:04:13.579Z,96.40
2018-12-13T13:06:42.433Z,96.40
2018-12-13T13:09:11.229Z,96.50
2018-12-13T13:11:40.123Z,95.70
2018-12-13T13:14:08.886Z,95.90
2018-12-13T13:16:37.719Z,95.70
2018-12-13T13:19:07.628Z,95.40
2018-12-13T13:21:36.517Z,95.20
2018-12-13T13:24:05.306Z,95.20
2018-12-13T13:26:34.122Z,95.30
2018-12-13T13:29:02.881Z,95.50
2018-12-13T13:31:31.773Z,95.80
2018-12-13T13:34:00.767Z,95.60
2018-12-13T13:36:29.553Z,95.20
2018-12-13T13:38:58.351Z,95.20
2018-12-13T13:41:28.457Z,95.10
2018-12-13T13:43:57.160Z,94.80
2018-12-13T13:46:26.048Z,95.00
2018-12-13T13:48:54.926Z,95.00
2018-12-13T13:51:23.797Z,95.00
2018-12-13T13:53:52.587Z,94.80
2018-12-13T13:56:21.398Z,94.50
2018-12-13T13:58:50.278Z,94.70
2018-12-13T14:01:20.141Z,94.80
2018-12-13T14:03:48.930Z,94.70
2018-12-13T14:06:17.737Z,94.70
2018-12-13T14:08:46.623Z,94.80
2018-12-13T14:11:15.379Z,94.80
2018-12-13T14:13:44.097Z,94.70
2018-12-13T14:16:12.811Z,94.80
2018-12-13T14:18:41.642Z,94.70
2018-12-13T14:21:10.622Z,94.60
2018-12-13T14:23:39.537Z,94.90
2018-12-13T14:26:08.383Z,95.00
2018-12-13T14:28:37.256Z,95.10
2018-12-13T14:31:06.104Z,95.00
2018-12-13T14:33:34.948Z,95.10
2018-12-13T14:36:03.722Z,95.10
2018-12-13T14:38:32.531Z,95.20
2018-12-13T14:41:03.223Z,95.30
2018-12-13T14:43:33.952Z,95.40
2018-12-13T14:46:03.735Z,95.50
2018-12-13T14:48:32.529Z,95.50
2018-12-13T14:51:01.349Z,95.60
2018-12-13T14:53:30.104Z,95.70
2018-12-13T14:55:58.902Z,95.70
2018-12-13T14:58:27.714Z,95.80
2018-12-13T15:00:56.510Z,95.90
2018-12-13T15:03:25.242Z,95.90
2018-12-13T15:05:54.069Z,95.90
2018-12-13T15:08:22.968Z,96.00
2018-12-13T15:10:51.702Z,96.10
2018-12-13T15:13:20.516Z,96.00
2018-12-13T15:15:50.366Z,96.00
2018-12-13T15:18:19.224Z,95.90
2018-12-13T15:20:48.009Z,95.90
2018-12-13T15:23:17.928Z,95.80
2018-12-13T15:25:46.665Z,95.90
2018-12-13T15:28:15.569Z,95.90
2018-12-13T15:30:44.297Z,95.80
2018-12-13T15:33:13.157Z,95.90
2018-12-13T15:35:42.082Z,96.00
2018-12-13T15:38:10.958Z,96.20
2018-12-13T15:40:39.762Z,96.20
2018-12-13T15:43:08.749Z,95.80
2018-12-13T15:45:37.684Z,96.10
2018-12-13T15:48:06.459Z,96.60
2018-12-13T15:50:38.106Z,96.90
2018-12-13T15:53:07.133Z,97.10
2018-12-13T15:55:37.155Z,95.90
2018-12-13T15:58:06.028Z,96.00
2018-12-13T16:00:34.781Z,95.70
2018-12-13T16:03:04.090Z,95.30
2018-12-13T16:05:32.842Z,95.50
2018-12-13T16:08:01.653Z,96.10
2018-12-13T16:10:30.392Z,96.50
2018-12-13T16:12:59.229Z,96.70
2018-12-13T16:15:28.058Z,96.00
2018-12-13T16:17:56.885Z,96.10
2018-12-13T16:20:25.664Z,96.40
2018-12-13T16:22:54.455Z,96.60
2018-12-13T16:25:23.290Z,96.30
2018-12-13T16:27:52.065Z,96.60
2018-12-13T16:30:20.872Z,96.40
2018-12-13T16:32:49.657Z,96.50
2018-12-13T16:35:18.534Z,96.80
2018-12-13T16:37:47.224Z,97.00
2018-12-13T16:40:16.109Z,96.80
2018-12-13T16:42:44.937Z,96.80
2018-12-13T16:45:13.769Z,96.80
2018-12-13T16:47:42.691Z,97.00
2018-12-13T16:50:11.556Z,96.80
2018-12-13T23:11:51.505Z,97.50
2018-12-13T23:14:20.308Z,97.50
2018-12-13T23:16:49.119Z,97.40
2018-12-13T23:19:17.902Z,97.40
2018-12-13T23:21:46.732Z,97.80
2018-12-13T23:24:15.512Z,97.40
2018-12-13T23:26:44.268Z,97.30
2018-12-13T23:29:13.150Z,97.30
2018-12-13T23:31:42.017Z,97.30
2018-12-13T23:34:10.836Z,97.30
2018-12-13T23:36:39.566Z,97.20
2018-12-13T23:39:08.409Z,97.10
2018-12-13T23:41:39.411Z,97.10
2018-12-13T23:44:08.523Z,97.20
2018-12-13T23:46:37.341Z,97.30
2018-12-13T23:49:06.170Z,97.60
2018-12-13T23:51:34.938Z,97.10
2018-12-13T23:54:03.834Z,97.20
2018-12-13T23:56:32.630Z,97.20
2018-12-13T23:59:01.802Z,97.30
